createdAt,value
2019-05-02T00:00:10.259Z,45.77
2019-05-02T00:03:19.088Z,45.80
2019-05-02T00:06:25.529Z,45.74
2019-05-02T00:09:33.484Z,45.38
2019-05-02T00:12:39.380Z,45.61
2019-05-02T00:15:45.268Z,44.98
2019-05-02T00:18:50.986Z,45.73
2019-05-02T00:21:56.817Z,45.99
2019-05-02T00:25:02.640Z,45.99
2019-05-02T00:28:12.393Z,46.42
2019-05-02T00:31:18.895Z,45.98
2019-05-02T00:34:24.552Z,45.86
2019-05-02T00:37:30.279Z,46.55
2019-05-02T00:40:36.123Z,46.22
2019-05-02T00:43:41.998Z,46.69
2019-05-02T00:46:48.387Z,47.34
2019-05-02T00:49:54.312Z,47.34
2019-05-02T00:53:00.001Z,47.84
2019-05-02T00:56:09.011Z,48.17
2019-05-02T00:59:13.380Z,47.24
2019-05-02T01:02:35.828Z,47.58
2019-05-02T01:05:41.487Z,47.57
2019-05-02T01:08:47.203Z,47.54
2019-05-02T01:11:56.720Z,47.60
2019-05-02T01:15:08.429Z,47.41
2019-05-02T01:18:11.367Z,47.99
2019-05-02T01:21:17.168Z,47.96
2019-05-02T01:24:22.991Z,48.00
2019-05-02T01:27:41.181Z,48.11
2019-05-02T01:31:13.131Z,47.91
2019-05-02T01:34:33.023Z,47.82
2019-05-02T01:38:16.142Z,47.34
2019-05-02T01:41:23.914Z,47.80
2019-05-02T01:44:31.196Z,47.70
2019-05-02T01:47:36.791Z,47.84
2019-05-02T01:50:42.536Z,47.99
2019-05-02T01:53:48.217Z,47.22
2019-05-02T01:56:54.157Z,47.47
2019-05-02T02:00:04.298Z,47.61
2019-05-02T02:03:09.032Z,47.94
2019-05-02T02:06:16.328Z,47.63
2019-05-02T02:09:22.037Z,48.07
2019-05-02T02:12:27.875Z,47.50
2019-05-02T02:15:33.625Z,48.14
2019-05-02T02:18:45.063Z,48.91
2019-05-02T02:22:09.716Z,48.51
2019-05-02T02:25:36.277Z,48.57
2019-05-02T02:28:40.221Z,48.41
2019-05-02T02:31:48.207Z,48.10
2019-05-02T02:34:53.351Z,48.48
2019-05-02T02:37:59.091Z,48.59
2019-05-02T02:41:06.496Z,48.92
2019-05-02T02:44:20.372Z,49.52
2019-05-02T02:47:26.410Z,49.71
2019-05-02T02:50:36.605Z,49.98
2019-05-02T02:53:39.655Z,49.97
2019-05-02T02:56:45.403Z,50.28
2019-05-02T02:59:51.085Z,51.38
2019-05-02T03:02:56.844Z,50.29
2019-05-02T03:06:05.471Z,50.84
2019-05-02T03:09:10.196Z,51.18
2019-05-02T03:12:41.631Z,51.74
2019-05-02T03:15:51.762Z,51.46
2019-05-02T03:18:57.627Z,52.32
2019-05-02T03:22:04.164Z,52.14
2019-05-02T03:25:11.509Z,52.91
2019-05-02T03:28:21.004Z,53.87
2019-05-02T03:31:30.222Z,54.31
2019-05-02T03:34:47.849Z,55.01
2019-05-02T03:37:44.741Z,54.67
2019-05-02T03:40:50.156Z,54.52
2019-05-02T03:44:10.418Z,54.41
2019-05-02T03:47:04.943Z,54.00
2019-05-02T03:50:11.087Z,53.15
2019-05-02T03:53:17.567Z,52.95
2019-05-02T03:56:24.151Z,52.38
2019-05-02T03:59:39.107Z,52.09
2019-05-02T04:02:40.597Z,52.49
2019-05-02T04:05:47.050Z,52.65
2019-05-02T04:08:58.874Z,53.08
2019-05-02T04:12:00.607Z,53.31
2019-05-02T04:15:09.556Z,53.08
2019-05-02T04:18:15.648Z,53.79
2019-05-02T04:21:25.922Z,53.71
2019-05-02T04:24:30.261Z,54.52
2019-05-02T04:27:36.286Z,54.71
2019-05-02T04:30:45.183Z,54.58
2019-05-02T04:33:49.403Z,54.30
2019-05-02T04:37:00.930Z,54.00
2019-05-02T04:40:03.465Z,53.94
2019-05-02T04:43:11.429Z,53.51
2019-05-02T04:46:25.562Z,52.84
2019-05-02T04:49:32.694Z,52.48
2019-05-02T04:52:38.425Z,52.89
2019-05-02T04:55:39.843Z,52.93
2019-05-02T04:58:45.524Z,52.89
2019-05-02T05:01:57.386Z,52.19
2019-05-02T05:04:58.749Z,51.71
2019-05-02T05:08:07.741Z,51.60
2019-05-02T05:11:13.874Z,51.63
2019-05-02T05:14:20.623Z,51.40
2019-05-02T05:17:32.724Z,51.43
2019-05-02T05:20:33.825Z,51.64
2019-05-02T05:24:07.807Z,51.98
2019-05-02T05:27:18.846Z,51.49
2019-05-02T05:30:21.076Z,51.81
2019-05-02T05:33:28.358Z,52.35
2019-05-02T05:36:34.257Z,52.65
2019-05-02T05:39:43.211Z,53.35
2019-05-02T05:42:48.142Z,53.36
2019-05-02T05:46:06.078Z,54.56
2019-05-02T05:49:01.382Z,53.61
2019-05-02T05:52:08.023Z,53.61
2019-05-02T05:55:20.483Z,53.20
2019-05-02T05:58:21.658Z,53.14
2019-05-02T06:01:34.052Z,52.70
2019-05-02T06:04:34.760Z,53.00
2019-05-02T06:07:43.969Z,52.34
2019-05-02T06:10:47.887Z,51.53
2019-05-02T06:13:53.670Z,51.31
2019-05-02T06:16:59.742Z,51.96
2019-05-02T06:20:06.475Z,51.48
2019-05-02T06:23:12.223Z,51.97
2019-05-02T06:26:19.251Z,51.46
2019-05-02T06:29:25.241Z,50.72
2019-05-02T06:32:33.692Z,50.76
2019-05-02T06:35:39.576Z,50.29
2019-05-02T06:38:46.405Z,50.72
2019-05-02T06:41:57.518Z,49.64
2019-05-02T06:45:01.049Z,49.09
2019-05-02T06:48:07.291Z,49.82
2019-05-02T06:51:19.593Z,49.65
2019-05-02T06:54:22.828Z,49.47
2019-05-02T06:57:28.066Z,49.29
2019-05-02T07:00:38.433Z,48.22
2019-05-02T07:03:46.148Z,47.89
2019-05-02T07:06:58.259Z,47.09
2019-05-02T07:09:56.545Z,47.28
2019-05-02T07:13:10.653Z,47.09
2019-05-02T07:16:37.790Z,46.80
2019-05-02T07:19:39.261Z,46.80
2019-05-02T07:22:45.712Z,46.28
2019-05-02T07:25:52.030Z,46.08
2019-05-02T07:28:57.860Z,45.93
2019-05-02T07:32:03.679Z,45.93
2019-05-02T07:35:10.622Z,45.11
2019-05-02T07:38:20.234Z,45.61
2019-05-02T07:41:24.176Z,44.54
2019-05-02T07:44:32.743Z,44.43
2019-05-02T07:47:40.162Z,44.16
2019-05-02T07:50:47.941Z,43.35
2019-05-02T07:53:55.564Z,43.22
2019-05-02T07:57:02.457Z,41.78
2019-05-02T08:00:11.222Z,39.14
2019-05-02T08:03:16.978Z,38.21
2019-05-02T08:06:35.035Z,35.85
2019-05-02T08:09:33.779Z,34.26
2019-05-02T08:12:39.575Z,33.12
2019-05-02T08:15:50.611Z,31.70
2019-05-02T08:18:53.949Z,31.80
2019-05-02T08:22:04.743Z,31.28
2019-05-02T08:25:10.436Z,30.79
2019-05-02T08:28:27.603Z,30.85
2019-05-02T08:31:33.296Z,30.68
2019-05-02T08:34:46.220Z,30.43
2019-05-02T08:37:55.832Z,29.79
2019-05-02T08:41:00.386Z,29.15
2019-05-02T08:44:06.208Z,29.67
2019-05-02T08:47:18.774Z,29.26
2019-05-02T08:50:19.638Z,28.99
2019-05-02T08:53:25.326Z,28.45
2019-05-02T08:56:31.104Z,28.36
2019-05-02T08:59:36.759Z,27.85
2019-05-02T09:02:42.489Z,27.72
2019-05-02T09:05:48.143Z,27.53
2019-05-02T09:08:53.870Z,27.86
2019-05-02T09:12:09.592Z,27.83
2019-05-02T09:15:07.730Z,27.61
2019-05-02T09:18:13.403Z,27.74
2019-05-02T09:21:19.306Z,26.75
2019-05-02T09:24:25.328Z,26.81
2019-05-02T09:27:31.803Z,26.64
2019-05-02T09:30:37.665Z,26.65
2019-05-02T09:33:46.837Z,26.40
2019-05-02T09:36:53.035Z,26.37
2019-05-02T09:39:58.493Z,26.24
2019-05-02T09:43:04.807Z,26.11
2019-05-02T09:46:12.929Z,25.76
2019-05-02T09:49:18.075Z,25.95
2019-05-02T09:52:23.752Z,25.72
2019-05-02T09:55:31.644Z,25.89
2019-05-02T09:58:41.904Z,26.17
2019-05-02T10:01:47.236Z,25.78
2019-05-02T10:04:53.179Z,25.85
2019-05-02T10:08:03.121Z,25.41
2019-05-02T10:11:06.905Z,25.21
2019-05-02T10:14:15.707Z,25.21
2019-05-02T10:17:23.104Z,25.10
2019-05-02T10:20:34.937Z,24.79
2019-05-02T10:23:59.129Z,24.30
2019-05-02T10:27:08.363Z,24.51
2019-05-02T10:30:21.724Z,23.92
2019-05-02T10:33:32.162Z,23.86
2019-05-02T10:36:35.455Z,23.65
2019-05-02T10:39:42.293Z,23.71
2019-05-02T10:42:48.378Z,23.21
2019-05-02T10:46:01.431Z,23.54
2019-05-02T10:49:32.291Z,23.64
2019-05-02T10:52:38.017Z,23.65
2019-05-02T10:55:43.706Z,22.75
2019-05-02T10:58:49.423Z,22.09
2019-05-02T11:02:22.110Z,22.19
2019-05-02T11:05:27.958Z,22.39
2019-05-02T11:08:36.766Z,22.16
2019-05-02T11:11:42.523Z,21.71
2019-05-02T11:14:56.690Z,22.14
2019-05-02T11:18:02.934Z,22.18
2019-05-02T11:21:08.840Z,22.17
2019-05-02T11:24:14.592Z,21.99
2019-05-02T11:27:22.129Z,21.25
2019-05-02T11:30:27.836Z,21.60
2019-05-02T11:33:33.662Z,21.96
2019-05-02T11:36:41.514Z,22.74
2019-05-02T11:39:52.707Z,24.91
2019-05-02T11:42:57.259Z,24.31
2019-05-02T11:46:07.111Z,23.60
2019-05-02T11:49:12.102Z,23.44
2019-05-02T11:52:17.380Z,22.76
2019-05-02T11:55:24.724Z,22.93
2019-05-02T11:58:32.495Z,23.44
2019-05-02T12:01:39.665Z,24.74
2019-05-02T12:04:47.229Z,24.85
2019-05-02T12:07:53.256Z,24.73
2019-05-02T12:11:01.277Z,24.23
2019-05-02T12:14:06.471Z,24.15
2019-05-02T12:17:12.257Z,24.86
2019-05-02T12:20:18.063Z,25.00
2019-05-02T12:23:23.876Z,24.52
2019-05-02T12:26:29.581Z,24.50
2019-05-02T12:29:35.325Z,24.18
2019-05-02T12:32:53.096Z,24.21
2019-05-02T12:35:58.971Z,24.87
2019-05-02T12:39:06.146Z,25.02
2019-05-02T12:42:13.335Z,24.34
2019-05-02T12:45:19.448Z,24.21
2019-05-02T12:48:25.177Z,24.93
2019-05-02T12:51:32.052Z,24.84
2019-05-02T12:54:38.032Z,24.75
2019-05-02T12:57:43.698Z,24.98
2019-05-02T13:00:49.453Z,24.33
2019-05-02T13:04:05.154Z,23.68
2019-05-02T13:07:12.803Z,22.82
2019-05-02T13:10:28.772Z,20.60
2019-05-02T13:13:34.724Z,21.12
2019-05-02T13:16:42.968Z,21.90
2019-05-02T13:19:56.212Z,21.36
2019-05-02T13:23:17.666Z,21.41
2019-05-02T13:26:27.058Z,21.48
2019-05-02T13:29:34.323Z,21.43
2019-05-02T13:32:42.779Z,21.77
2019-05-02T13:35:52.026Z,21.53
2019-05-02T13:39:12.351Z,21.13
2019-05-02T13:42:18.318Z,21.54
2019-05-02T13:46:02.292Z,21.92
2019-05-02T13:49:09.620Z,21.03
2019-05-02T13:52:15.779Z,21.30
2019-05-02T13:55:26.052Z,20.87
2019-05-02T13:58:33.211Z,20.90
2019-05-02T14:01:39.670Z,21.25
2019-05-02T14:04:46.014Z,21.83
2019-05-02T14:07:57.100Z,21.63
2019-05-02T14:11:28.708Z,22.43
2019-05-02T14:14:35.989Z,22.77
2019-05-02T14:17:43.703Z,22.21
2019-05-02T14:20:49.892Z,21.82
2019-05-02T14:23:55.999Z,21.54
2019-05-02T14:27:02.772Z,21.38
2019-05-02T14:30:09.648Z,21.73
2019-05-02T14:33:19.728Z,21.48
2019-05-02T14:36:25.594Z,21.35
2019-05-02T14:39:32.521Z,21.26
2019-05-02T14:42:38.559Z,21.61
2019-05-02T14:45:44.525Z,22.01
2019-05-02T14:48:52.243Z,21.69
2019-05-02T14:52:05.114Z,22.09
2019-05-02T14:55:06.666Z,22.10
2019-05-02T14:58:12.522Z,20.73
2019-05-02T15:01:22.565Z,21.27
2019-05-02T15:04:26.017Z,21.61
2019-05-02T15:07:34.132Z,21.87
2019-05-02T15:10:50.840Z,22.12
2019-05-02T15:13:52.495Z,21.81
2019-05-02T15:16:58.461Z,22.26
2019-05-02T15:20:04.982Z,25.05
2019-05-02T15:23:14.354Z,26.40
2019-05-02T15:26:18.082Z,27.19
2019-05-02T15:29:27.031Z,27.07
2019-05-02T15:32:44.778Z,27.50
2019-05-02T15:35:57.413Z,27.99
2019-05-02T15:42:13.020Z,28.65
2019-05-02T15:45:20.368Z,28.17
2019-05-02T15:48:27.758Z,27.01
2019-05-02T15:51:33.601Z,27.50
2019-05-02T15:54:40.283Z,26.61
2019-05-02T15:57:48.071Z,26.41
2019-05-02T16:01:18.421Z,26.66
2019-05-02T16:04:27.436Z,27.29
2019-05-02T16:07:33.206Z,27.07
2019-05-02T16:10:42.698Z,27.64
2019-05-02T16:13:52.715Z,28.04
2019-05-02T16:17:01.035Z,28.39
2019-05-02T16:20:18.391Z,28.37
2019-05-02T16:23:31.815Z,28.38
2019-05-02T16:26:35.265Z,28.55
2019-05-02T16:29:41.713Z,28.43
2019-05-02T16:32:58.930Z,28.10
2019-05-02T16:36:04.721Z,28.64
2019-05-02T16:39:13.371Z,28.51
2019-05-02T16:42:19.528Z,28.24
2019-05-02T16:45:25.584Z,28.56
2019-05-02T16:48:37.453Z,28.53
2019-05-02T16:51:38.878Z,28.46
2019-05-02T16:54:44.720Z,29.08
2019-05-02T16:57:51.963Z,29.51
2019-05-02T17:00:58.304Z,29.81
2019-05-02T17:04:06.713Z,29.62
2019-05-02T17:07:16.737Z,29.65
2019-05-02T17:10:29.817Z,30.04
2019-05-02T17:13:35.910Z,30.11
2019-05-02T17:16:42.129Z,30.25
2019-05-02T17:19:47.923Z,29.81
2019-05-02T17:23:01.902Z,30.55
2019-05-02T17:26:01.576Z,29.43
2019-05-02T17:29:07.551Z,29.95
2019-05-02T17:32:13.331Z,30.15
2019-05-02T17:35:22.102Z,29.95
2019-05-02T17:38:29.294Z,29.93
2019-05-02T17:41:37.128Z,29.81
2019-05-02T17:44:43.968Z,29.80
2019-05-02T17:47:49.782Z,29.96
2019-05-02T17:51:08.777Z,29.99
2019-05-02T17:54:17.541Z,30.33
2019-05-02T17:57:23.702Z,30.52
2019-05-02T18:00:33.521Z,30.66
2019-05-02T18:03:39.300Z,30.70
2019-05-02T18:06:46.845Z,30.95
2019-05-02T18:09:53.423Z,30.85
2019-05-02T18:13:02.667Z,31.03
2019-05-02T18:16:15.081Z,31.24
2019-05-02T18:19:20.587Z,31.34
2019-05-02T18:22:26.204Z,31.96
2019-05-02T18:25:30.767Z,31.90
2019-05-02T18:28:46.244Z,32.18
2019-05-02T18:31:47.258Z,32.75
2019-05-02T18:34:52.065Z,32.59
2019-05-02T18:37:57.958Z,32.66
2019-05-02T18:41:07.754Z,33.22
2019-05-02T18:44:17.089Z,33.22
2019-05-02T18:47:24.639Z,34.05
2019-05-02T18:50:36.746Z,33.91
2019-05-02T18:53:42.513Z,34.12
2019-05-02T18:56:51.283Z,34.00
2019-05-02T18:59:56.467Z,33.76
2019-05-02T19:03:07.567Z,34.05
2019-05-02T19:06:11.682Z,33.74
2019-05-02T19:09:21.859Z,33.85
2019-05-02T19:12:26.071Z,34.04
2019-05-02T19:15:34.644Z,34.09
2019-05-02T19:18:42.557Z,34.00
2019-05-02T19:21:47.779Z,34.09
2019-05-02T19:24:53.513Z,34.59
2019-05-02T19:28:05.968Z,34.57
2019-05-02T19:31:11.737Z,34.61
2019-05-02T19:34:22.888Z,34.72
2019-05-02T19:37:24.966Z,34.87
2019-05-02T19:40:31.805Z,34.70
2019-05-02T19:43:40.246Z,34.86
2019-05-02T19:46:47.606Z,35.01
2019-05-02T19:49:54.420Z,35.05
2019-05-02T19:53:04.098Z,35.36
2019-05-02T19:56:08.617Z,35.23
2019-05-02T19:59:16.828Z,35.77
2019-05-02T20:02:23.769Z,35.94
2019-05-02T20:05:29.787Z,36.12
2019-05-02T20:08:35.477Z,36.33
2019-05-02T20:11:42.540Z,36.04
2019-05-02T20:14:48.894Z,36.21
2019-05-02T20:18:00.442Z,36.18
2019-05-02T20:21:23.426Z,36.26
2019-05-02T20:24:22.750Z,36.85
2019-05-02T20:27:28.936Z,36.67
2019-05-02T20:30:34.839Z,37.04
2019-05-02T20:33:40.642Z,37.06
2019-05-02T20:36:46.573Z,37.70
2019-05-02T20:39:52.395Z,37.94
2019-05-02T20:42:58.211Z,37.58
2019-05-02T20:46:04.198Z,37.49
2019-05-02T20:49:10.305Z,37.55
2019-05-02T20:52:16.064Z,38.07
2019-05-02T20:55:21.975Z,38.01
2019-05-02T20:58:27.665Z,37.76
2019-05-02T21:01:33.381Z,37.72
2019-05-02T21:04:42.327Z,37.60
2019-05-02T21:08:05.440Z,37.63
2019-05-02T21:11:12.422Z,38.25
2019-05-02T21:14:18.373Z,37.59
2019-05-02T21:17:24.253Z,37.41
2019-05-02T21:20:37.537Z,37.39
2019-05-02T21:23:47.334Z,37.52
2019-05-02T21:26:52.509Z,37.30
2019-05-02T21:30:02.370Z,37.22
2019-05-02T21:33:22.386Z,37.21
2019-05-02T21:36:28.129Z,37.14
2019-05-02T21:39:33.957Z,37.33
2019-05-02T21:42:39.742Z,37.51
2019-05-02T21:45:52.796Z,37.36
2019-05-02T21:48:58.607Z,37.57
2019-05-02T21:52:16.044Z,37.69
2019-05-02T21:55:39.349Z,37.71
2019-05-02T21:59:03.043Z,37.83
2019-05-02T22:02:15.539Z,38.11
2019-05-02T22:05:28.968Z,38.03
2019-05-02T22:08:34.763Z,38.53
2019-05-02T22:11:42.891Z,38.60
2019-05-02T22:14:48.911Z,38.43
2019-05-02T22:17:54.728Z,39.40
2019-05-02T22:21:01.694Z,38.75
2019-05-02T22:24:11.538Z,38.69
2019-05-02T22:27:15.116Z,38.94
2019-05-02T22:30:21.959Z,39.33
2019-05-02T22:33:27.935Z,39.13
2019-05-02T22:36:33.742Z,38.93
2019-05-02T22:39:53.614Z,38.96
2019-05-02T22:42:59.299Z,39.83
2019-05-02T22:46:06.965Z,39.90
2019-05-02T22:49:14.535Z,39.90
2019-05-02T22:52:21.830Z,39.72
2019-05-02T22:55:27.675Z,39.68
2019-05-02T22:58:33.412Z,39.58
2019-05-02T23:01:39.205Z,39.23
2019-05-02T23:04:44.971Z,39.28
2019-05-02T23:07:52.281Z,39.48
2019-05-02T23:10:58.169Z,40.29
2019-05-02T23:14:03.999Z,40.26
2019-05-02T23:17:09.698Z,39.74
2019-05-02T23:20:15.653Z,39.63
2019-05-02T23:23:21.581Z,39.57
2019-05-02T23:26:56.690Z,39.80
2019-05-02T23:30:03.005Z,39.89
2019-05-02T23:33:09.201Z,39.36
2019-05-02T23:36:14.966Z,39.85
2019-05-02T23:39:20.823Z,40.14
2019-05-02T23:42:26.513Z,39.94
2019-05-02T23:45:32.327Z,40.28
2019-05-02T23:48:38.108Z,40.11
2019-05-02T23:51:43.885Z,40.46
2019-05-02T23:54:52.323Z,40.63
2019-05-02T23:57:57.063Z,40.63
